createdAt,value
2018-03-21T00:02:10.790Z,57.42
2018-03-21T00:04:37.628Z,58.60
2018-03-21T00:07:04.181Z,54.83
2018-03-21T00:09:31.671Z,53.85
2018-03-21T00:11:58.520Z,51.80
2018-03-21T00:14:25.297Z,53.70
2018-03-21T00:16:52.230Z,50.45
2018-03-21T00:19:18.698Z,42.38
2018-03-21T00:21:45.632Z,34.25
2018-03-21T00:24:12.060Z,31.77
2018-03-21T00:26:39.851Z,34.13
2018-03-21T00:29:06.429Z,29.12
2018-03-21T00:31:32.904Z,27.15
2018-03-21T00:34:00.364Z,32.60
2018-03-21T00:36:29.312Z,31.08
2018-03-21T00:38:55.883Z,30.70
2018-03-21T00:41:23.391Z,29.80
2018-03-21T00:43:52.080Z,29.50
2018-03-21T00:46:26.677Z,27.80
2018-03-21T00:48:54.364Z,27.85
2018-03-21T00:51:22.132Z,26.90
2018-03-21T00:53:48.652Z,27.73
2018-03-21T00:56:16.372Z,25.62
2018-03-21T00:58:42.977Z,26.37
2018-03-21T01:01:10.092Z,23.27
2018-03-21T01:03:37.874Z,23.48
2018-03-21T01:06:05.604Z,25.05
2018-03-21T01:08:32.584Z,23.67
2018-03-21T01:11:02.788Z,25.90
2018-03-21T01:13:29.496Z,24.33
2018-03-21T01:15:56.017Z,25.40
2018-03-21T01:18:22.916Z,27.83
2018-03-21T01:20:50.314Z,26.23
2018-03-21T01:23:18.438Z,26.75
2018-03-21T01:25:44.913Z,25.02
2018-03-21T01:28:12.626Z,25.17
2018-03-21T01:30:39.305Z,25.55
2018-03-21T01:33:05.880Z,25.35
2018-03-21T01:35:32.970Z,24.90
2018-03-21T01:37:59.484Z,26.48
2018-03-21T01:40:26.004Z,25.25
2018-03-21T01:42:52.544Z,27.85
2018-03-21T01:45:19.051Z,29.70
2018-03-21T01:47:45.948Z,27.25
2018-03-21T01:50:12.834Z,25.62
2018-03-21T01:52:39.344Z,28.85
2018-03-21T01:55:06.547Z,26.30
2018-03-21T01:57:33.655Z,25.75
2018-03-21T02:00:00.729Z,25.80
2018-03-21T02:02:28.548Z,27.00
2018-03-21T02:04:56.305Z,28.62
2018-03-21T02:07:22.788Z,28.08
2018-03-21T02:09:50.920Z,26.83
2018-03-21T02:12:17.444Z,32.13
2018-03-21T02:14:45.468Z,28.00
2018-03-21T02:17:16.319Z,28.35
2018-03-21T02:19:42.904Z,27.80
2018-03-21T02:22:10.671Z,24.87
2018-03-21T02:24:37.128Z,25.48
2018-03-21T02:27:04.040Z,25.65
2018-03-21T02:29:30.591Z,25.60
2018-03-21T02:31:57.053Z,24.70
2018-03-21T02:34:24.821Z,26.42
2018-03-21T02:36:52.321Z,24.65
2018-03-21T02:39:18.848Z,26.55
2018-03-21T02:41:45.389Z,26.40
2018-03-21T02:44:11.879Z,26.67
2018-03-21T02:46:39.389Z,26.73
2018-03-21T02:49:05.848Z,28.80
2018-03-21T02:51:33.425Z,28.15
2018-03-21T02:54:00.303Z,27.55
2018-03-21T02:56:27.921Z,28.38
2018-03-21T02:58:54.774Z,28.08
2018-03-21T03:01:22.248Z,28.87
2018-03-21T03:03:49.064Z,26.40
2018-03-21T03:06:17.801Z,28.45
2018-03-21T03:08:44.338Z,26.90
2018-03-21T03:11:10.828Z,29.40
2018-03-21T03:13:39.496Z,32.28
2018-03-21T03:16:06.055Z,32.67
2018-03-21T03:18:34.725Z,33.72
2018-03-21T03:21:01.264Z,31.17
2018-03-21T03:23:28.112Z,32.00
2018-03-21T03:25:55.560Z,32.35
2018-03-21T03:28:22.405Z,34.55
2018-03-21T03:30:49.001Z,37.88
2018-03-21T03:33:15.802Z,34.00
2018-03-21T03:35:42.629Z,35.60
2018-03-21T03:38:09.779Z,37.28
2018-03-21T03:40:36.631Z,36.22
2018-03-21T03:43:03.495Z,37.70
2018-03-21T03:45:30.988Z,37.80
2018-03-21T03:47:58.748Z,40.22
2018-03-21T04:03:44.352Z,34.03
2018-03-21T04:06:10.861Z,36.28
2018-03-21T04:08:37.317Z,36.10
2018-03-21T04:11:03.856Z,37.97
2018-03-21T04:13:30.756Z,36.83
2018-03-21T04:15:57.584Z,45.25
2018-03-21T04:18:25.088Z,33.03
2018-03-21T04:20:53.251Z,32.45
2018-03-21T04:23:19.912Z,35.63
2018-03-21T04:25:46.800Z,36.90
2018-03-21T04:28:13.362Z,34.03
2018-03-21T04:30:40.420Z,35.38
2018-03-21T04:33:08.517Z,33.38
2018-03-21T04:35:35.040Z,30.60
2018-03-21T04:38:03.768Z,29.83
2018-03-21T04:40:30.325Z,32.85
2018-03-21T04:42:57.092Z,37.47
2018-03-21T04:45:24.051Z,34.35
2018-03-21T04:47:51.139Z,31.20
2018-03-21T04:50:17.746Z,32.38
2018-03-21T04:52:44.165Z,33.35
2018-03-21T04:55:11.076Z,29.77
2018-03-21T04:57:37.893Z,28.38
2018-03-21T05:00:06.534Z,28.40
2018-03-21T05:02:33.345Z,27.67
2018-03-21T05:04:59.869Z,26.02
2018-03-21T05:07:26.511Z,33.35
2018-03-21T05:09:53.262Z,31.77
2018-03-21T05:12:20.090Z,30.98
2018-03-21T05:14:46.540Z,31.52
2018-03-21T05:17:12.944Z,33.17
2018-03-21T05:19:39.742Z,31.60
2018-03-21T05:22:06.224Z,33.50
2018-03-21T05:24:32.708Z,33.97
2018-03-21T05:26:59.105Z,32.38
2018-03-21T05:29:25.609Z,29.17
2018-03-21T05:31:52.004Z,32.55
2018-03-21T05:34:18.660Z,37.85
2018-03-21T05:36:45.246Z,34.40
2018-03-21T05:39:11.712Z,39.58
2018-03-21T05:41:38.169Z,37.03
2018-03-21T05:44:05.133Z,36.35
2018-03-21T05:46:31.571Z,39.38
2018-03-21T05:48:58.234Z,34.78
2018-03-21T05:51:24.780Z,51.80
2018-03-21T05:53:52.244Z,41.17
2018-03-21T05:56:18.735Z,40.00
2018-03-21T05:58:45.554Z,44.30
2018-03-21T06:01:12.380Z,47.45
2018-03-21T06:03:38.784Z,44.30
2018-03-21T06:06:05.800Z,47.90
2018-03-21T06:08:32.258Z,42.30
2018-03-21T06:10:58.699Z,45.47
2018-03-21T06:13:25.591Z,42.60
2018-03-21T06:15:52.468Z,41.92
2018-03-21T06:18:19.248Z,44.63
2018-03-21T06:20:46.011Z,44.65
2018-03-21T06:23:12.429Z,42.95
2018-03-21T06:25:39.609Z,39.17
2018-03-21T06:28:06.376Z,44.35
2018-03-21T06:30:34.805Z,60.63
2018-03-21T06:33:01.644Z,43.45
2018-03-21T06:35:28.601Z,53.03
2018-03-21T06:37:55.752Z,39.17
2018-03-21T06:40:22.264Z,38.08
2018-03-21T06:42:48.715Z,38.45
2018-03-21T06:45:16.795Z,34.75
2018-03-21T06:47:43.574Z,37.15
2018-03-21T06:50:10.558Z,37.20
2018-03-21T06:52:37.781Z,36.47
2018-03-21T06:55:07.537Z,42.05
2018-03-21T06:57:34.767Z,48.80
2018-03-21T07:00:01.544Z,50.95
2018-03-21T07:02:28.408Z,50.88
2018-03-21T07:04:54.908Z,48.58
2018-03-21T07:07:21.480Z,49.80
2018-03-21T07:09:47.927Z,39.58
2018-03-21T07:12:14.372Z,47.10
2018-03-21T07:14:53.216Z,50.53
2018-03-21T07:17:19.680Z,74.30
2018-03-21T07:19:46.148Z,45.22
2018-03-21T07:22:12.541Z,48.20
2018-03-21T07:24:38.992Z,41.58
2018-03-21T07:27:06.147Z,39.15
2018-03-21T07:29:32.934Z,46.05
2018-03-21T07:31:59.374Z,29.00
2018-03-21T07:34:25.776Z,28.83
2018-03-21T07:36:52.568Z,23.55
2018-03-21T07:39:19.255Z,29.30
2018-03-21T07:41:45.647Z,26.90
2018-03-21T07:44:12.432Z,28.40
2018-03-21T07:46:39.265Z,37.28
2018-03-21T07:49:05.838Z,27.25
2018-03-21T07:51:32.375Z,28.15
2018-03-21T07:53:59.245Z,29.42
2018-03-21T07:56:26.014Z,31.05
2018-03-21T07:58:52.420Z,35.38
2018-03-21T08:01:19.024Z,28.60
2018-03-21T08:03:46.163Z,54.45
2018-03-21T08:06:12.551Z,37.08
2018-03-21T08:08:39.754Z,55.53
2018-03-21T08:11:06.989Z,50.10
2018-03-21T08:13:33.404Z,29.42
2018-03-21T08:15:59.850Z,30.00
2018-03-21T08:18:26.428Z,33.83
2018-03-21T08:20:53.821Z,24.25
2018-03-21T08:23:20.954Z,24.52
2018-03-21T08:25:47.432Z,21.95
2018-03-21T08:28:14.190Z,22.40
2018-03-21T08:30:40.590Z,21.75
2018-03-21T08:33:07.354Z,22.62
2018-03-21T08:35:33.993Z,22.73
2018-03-21T08:38:04.814Z,21.87
2018-03-21T08:40:33.993Z,21.77
2018-03-21T08:43:00.376Z,21.80
2018-03-21T08:45:27.203Z,23.98
2018-03-21T08:47:53.984Z,23.80
2018-03-21T08:50:20.761Z,22.40
2018-03-21T08:52:47.344Z,24.65
2018-03-21T08:55:13.924Z,23.62
2018-03-21T08:57:40.695Z,24.55
2018-03-21T09:00:07.551Z,29.33
2018-03-21T09:02:34.007Z,23.35
2018-03-21T09:05:00.424Z,23.85
2018-03-21T09:07:26.937Z,25.50
2018-03-21T09:23:13.417Z,20.90
2018-03-21T09:25:40.383Z,27.30
2018-03-21T09:28:07.328Z,25.88
2018-03-21T09:30:33.848Z,41.88
2018-03-21T09:33:00.619Z,29.45
2018-03-21T09:35:27.699Z,24.73
2018-03-21T09:37:54.953Z,23.25
2018-03-21T09:40:21.827Z,45.42
2018-03-21T09:42:48.664Z,25.02
2018-03-21T09:45:15.071Z,25.62
2018-03-21T09:47:42.219Z,21.95
2018-03-21T09:50:08.621Z,25.12
2018-03-21T09:52:35.207Z,27.15
2018-03-21T09:55:02.392Z,25.60
2018-03-21T09:57:28.801Z,25.52
2018-03-21T09:59:55.253Z,27.05
2018-03-21T10:02:22.073Z,24.17
2018-03-21T10:04:48.643Z,25.55
2018-03-21T10:07:15.036Z,28.58
2018-03-21T10:09:43.033Z,26.10
2018-03-21T10:12:09.789Z,23.87
2018-03-21T10:14:36.797Z,23.80
2018-03-21T10:17:03.215Z,21.95
2018-03-21T10:19:31.066Z,25.08
2018-03-21T10:21:57.524Z,25.12
2018-03-21T10:24:25.379Z,28.30
2018-03-21T10:26:51.778Z,22.08
2018-03-21T10:29:18.188Z,24.60
2018-03-21T10:31:45.757Z,25.95
2018-03-21T10:34:12.524Z,21.67
2018-03-21T10:36:39.457Z,18.50
2018-03-21T10:39:06.227Z,18.65
2018-03-21T10:41:33.014Z,21.92
2018-03-21T10:43:59.933Z,21.40
2018-03-21T10:46:27.251Z,23.10
2018-03-21T10:48:53.698Z,41.88
2018-03-21T10:51:20.623Z,31.52
2018-03-21T10:53:47.453Z,36.97
2018-03-21T10:56:13.925Z,31.75
2018-03-21T10:58:40.756Z,29.52
2018-03-21T11:01:13.236Z,23.38
2018-03-21T11:03:39.728Z,62.92
2018-03-21T11:06:06.866Z,39.10
2018-03-21T11:08:33.264Z,23.95
2018-03-21T11:10:59.749Z,29.85
2018-03-21T11:13:26.229Z,44.38
2018-03-21T11:15:52.685Z,32.25
2018-03-21T11:18:20.389Z,18.52
2018-03-21T11:20:46.787Z,14.95
2018-03-21T11:23:13.246Z,15.32
2018-03-21T11:25:43.384Z,15.43
2018-03-21T11:28:11.576Z,13.35
2018-03-21T11:30:37.956Z,15.02
2018-03-21T11:33:04.427Z,15.13
2018-03-21T11:35:31.434Z,15.05
2018-03-21T11:37:58.053Z,16.65
2018-03-21T11:40:24.458Z,16.23
2018-03-21T11:42:51.625Z,16.80
2018-03-21T11:45:18.103Z,19.08
2018-03-21T11:47:44.761Z,21.27
2018-03-21T11:50:11.585Z,23.02
2018-03-21T11:52:37.973Z,18.87
2018-03-21T11:55:04.380Z,18.73
2018-03-21T11:57:30.845Z,14.85
2018-03-21T11:59:57.287Z,13.90
2018-03-21T12:02:24.442Z,16.52
2018-03-21T12:04:51.352Z,16.02
2018-03-21T12:07:18.125Z,24.87
2018-03-21T12:09:45.031Z,16.48
2018-03-21T12:12:11.449Z,18.20
2018-03-21T12:14:38.778Z,18.55
2018-03-21T12:17:05.337Z,19.40
2018-03-21T12:19:32.124Z,24.17
2018-03-21T12:21:58.889Z,30.15
2018-03-21T12:24:25.795Z,25.05
2018-03-21T12:26:52.622Z,27.48
2018-03-21T12:29:19.420Z,28.42
2018-03-21T12:31:46.172Z,27.67
2018-03-21T12:34:13.006Z,35.60
2018-03-21T12:36:39.770Z,30.12
2018-03-21T12:39:06.257Z,31.02
2018-03-21T12:41:33.152Z,29.77
2018-03-21T12:43:59.621Z,30.08
2018-03-21T12:46:26.162Z,28.27
2018-03-21T12:48:52.822Z,30.12
2018-03-21T12:51:19.837Z,32.28
2018-03-21T12:53:46.592Z,33.70
2018-03-21T12:56:13.462Z,21.75
2018-03-21T12:58:39.853Z,22.25
2018-03-21T13:01:06.303Z,25.40
2018-03-21T13:03:32.853Z,24.70
2018-03-21T13:05:59.239Z,25.77
2018-03-21T13:08:26.001Z,27.67
2018-03-21T13:10:52.396Z,21.40
2018-03-21T13:13:18.861Z,20.35
2018-03-21T13:15:45.663Z,21.15
2018-03-21T13:18:12.809Z,22.95
2018-03-21T13:20:39.636Z,24.20
2018-03-21T13:23:06.472Z,26.60
2018-03-21T13:25:33.997Z,22.40
2018-03-21T13:28:00.924Z,33.58
2018-03-21T13:30:27.473Z,22.98
2018-03-21T13:32:53.861Z,23.30
2018-03-21T13:35:20.630Z,25.42
2018-03-21T13:37:47.024Z,27.37
2018-03-21T13:40:13.462Z,33.72
2018-03-21T13:42:40.629Z,27.30
2018-03-21T13:45:07.892Z,30.45
2018-03-21T13:47:35.109Z,28.02
2018-03-21T13:50:01.509Z,26.73
2018-03-21T13:52:28.344Z,27.13
2018-03-21T13:54:54.984Z,27.02
2018-03-21T13:57:22.137Z,30.05
2018-03-21T13:59:48.541Z,27.95
2018-03-21T14:02:15.324Z,27.90
2018-03-21T14:04:41.722Z,25.12
2018-03-21T14:07:08.234Z,25.45
2018-03-21T14:09:34.624Z,27.70
2018-03-21T14:12:01.421Z,26.83
2018-03-21T14:14:27.816Z,28.60
2018-03-21T14:16:54.594Z,38.10
2018-03-21T14:19:21.779Z,22.58
2018-03-21T14:21:49.002Z,25.90
2018-03-21T14:24:15.420Z,22.20
2018-03-21T14:26:41.830Z,25.05
2018-03-21T14:29:08.765Z,25.70
2018-03-21T14:31:36.767Z,23.60
2018-03-21T14:34:03.544Z,24.37
2018-03-21T14:36:30.082Z,19.92
2018-03-21T14:38:56.848Z,23.38
2018-03-21T14:41:23.700Z,22.92
2018-03-21T14:43:50.843Z,22.33
2018-03-21T14:46:17.308Z,20.55
2018-03-21T14:48:44.294Z,30.48
2018-03-21T14:51:12.973Z,22.75
2018-03-21T14:53:40.117Z,22.55
2018-03-21T14:56:06.511Z,21.50
2018-03-21T14:58:33.707Z,23.38
2018-03-21T15:01:00.477Z,27.30
2018-03-21T15:03:27.698Z,23.38
2018-03-21T15:05:54.076Z,25.65
2018-03-21T15:08:20.828Z,22.13
2018-03-21T15:10:47.956Z,23.40
2018-03-21T15:13:14.909Z,25.75
2018-03-21T15:15:42.424Z,22.80
2018-03-21T15:18:09.934Z,23.30
2018-03-21T15:20:37.133Z,29.63
2018-03-21T15:23:04.276Z,23.90
2018-03-21T15:25:30.908Z,24.63
2018-03-21T15:27:57.356Z,25.30
2018-03-21T15:30:24.307Z,28.10
2018-03-21T15:32:51.139Z,27.58
2018-03-21T15:35:17.631Z,25.55
2018-03-21T15:37:44.559Z,25.42
2018-03-21T15:40:11.077Z,25.48
2018-03-21T15:42:37.881Z,25.42
2018-03-21T15:45:04.682Z,23.98
2018-03-21T15:47:31.416Z,24.10
2018-03-21T15:49:58.253Z,30.05
2018-03-21T15:52:25.385Z,21.52
2018-03-21T15:54:51.893Z,28.70
2018-03-21T15:57:18.690Z,22.62
2018-03-21T15:59:45.150Z,21.95
2018-03-21T16:02:12.032Z,22.20
2018-03-21T16:04:38.419Z,21.02
2018-03-21T16:07:05.625Z,25.88
2018-03-21T16:09:32.595Z,24.45
2018-03-21T16:11:59.147Z,22.33
2018-03-21T16:14:25.600Z,26.62
2018-03-21T16:16:52.623Z,24.65
2018-03-21T16:19:20.191Z,21.67
2018-03-21T16:21:46.580Z,23.38
2018-03-21T16:24:12.979Z,21.30
2018-03-21T16:26:40.230Z,25.05
2018-03-21T16:29:06.639Z,21.80
2018-03-21T16:31:33.246Z,22.90
2018-03-21T16:33:59.649Z,21.42
2018-03-21T16:36:26.317Z,22.00
2018-03-21T16:38:52.918Z,25.08
2018-03-21T16:41:19.316Z,23.35
2018-03-21T16:43:45.708Z,20.52
2018-03-21T16:46:12.916Z,25.50
2018-03-21T16:48:39.285Z,25.70
2018-03-21T16:51:06.441Z,23.98
2018-03-21T16:53:34.600Z,21.92
2018-03-21T16:56:01.033Z,20.42
2018-03-21T16:58:28.465Z,26.37
2018-03-21T17:14:13.006Z,22.15
2018-03-21T17:16:40.770Z,25.10
2018-03-21T17:19:07.236Z,24.15
2018-03-21T17:21:34.059Z,25.98
2018-03-21T17:24:00.528Z,27.10
2018-03-21T17:26:27.073Z,20.45
2018-03-21T17:28:53.528Z,21.62
2018-03-21T17:31:20.415Z,22.35
2018-03-21T17:33:46.838Z,28.02
2018-03-21T17:36:13.673Z,21.92
2018-03-21T17:38:40.066Z,24.75
2018-03-21T17:41:06.584Z,26.33
2018-03-21T17:43:33.039Z,23.58
2018-03-21T17:45:59.904Z,28.05
2018-03-21T17:48:26.693Z,27.17
2018-03-21T17:50:53.631Z,25.65
2018-03-21T17:53:20.480Z,23.90
2018-03-21T17:55:47.255Z,25.48
2018-03-21T17:58:14.020Z,25.27
2018-03-21T18:00:40.429Z,25.02
2018-03-21T18:03:08.292Z,25.70
2018-03-21T18:05:35.627Z,26.12
2018-03-21T18:08:02.402Z,26.55
2018-03-21T18:10:28.938Z,28.33
2018-03-21T18:12:55.445Z,23.33
2018-03-21T18:15:21.907Z,30.37
2018-03-21T18:17:48.349Z,27.83
2018-03-21T18:20:14.839Z,28.25
2018-03-21T18:22:41.644Z,28.17
2018-03-21T18:25:08.841Z,32.05
2018-03-21T18:27:35.324Z,29.85
2018-03-21T18:30:02.130Z,32.42
2018-03-21T18:32:28.703Z,31.12
2018-03-21T18:34:55.095Z,29.02
2018-03-21T18:37:21.504Z,29.30
2018-03-21T18:39:48.343Z,33.95
2018-03-21T18:42:15.216Z,30.45
2018-03-21T18:44:41.698Z,29.27
2018-03-21T18:47:08.581Z,33.60
2018-03-21T18:49:35.429Z,31.30
2018-03-21T18:52:01.923Z,30.55
2018-03-21T18:54:28.417Z,29.63
2018-03-21T18:56:55.012Z,33.40
2018-03-21T18:59:21.552Z,32.00
2018-03-21T19:01:48.134Z,31.87
2018-03-21T19:04:14.983Z,28.38
2018-03-21T19:06:41.513Z,30.52
2018-03-21T19:09:08.021Z,36.05
2018-03-21T19:11:34.525Z,27.65
2018-03-21T19:14:01.033Z,31.25
2018-03-21T19:16:27.434Z,28.12
2018-03-21T19:18:54.283Z,29.67
2018-03-21T19:21:22.490Z,32.38
2018-03-21T19:23:49.016Z,33.05
2018-03-21T19:26:15.533Z,33.55
2018-03-21T19:28:42.403Z,27.70
2018-03-21T19:31:08.962Z,31.27
2018-03-21T19:33:35.478Z,31.40
2018-03-21T19:36:05.325Z,27.80
2018-03-21T19:38:31.738Z,31.87
2018-03-21T19:40:59.250Z,33.00
2018-03-21T19:43:26.093Z,30.33
2018-03-21T19:45:52.888Z,31.25
2018-03-21T19:48:20.253Z,31.00
2018-03-21T19:50:47.567Z,37.42
2018-03-21T19:53:14.073Z,36.50
2018-03-21T19:55:41.032Z,36.95
2018-03-21T19:58:07.848Z,38.85
2018-03-21T20:00:34.739Z,33.50
2018-03-21T20:03:01.512Z,28.45
2018-03-21T20:05:28.704Z,37.65
2018-03-21T20:07:55.099Z,31.45
2018-03-21T20:10:21.919Z,31.50
2018-03-21T20:12:49.313Z,32.15
2018-03-21T20:15:15.813Z,32.85
2018-03-21T20:17:42.658Z,37.65
2018-03-21T20:20:09.465Z,38.03
2018-03-21T20:22:35.876Z,37.53
2018-03-21T20:25:02.712Z,33.40
2018-03-21T20:27:29.112Z,35.47
2018-03-21T20:29:55.510Z,34.28
2018-03-21T20:32:22.771Z,36.28
2018-03-21T20:34:49.254Z,31.27
2018-03-21T20:37:16.030Z,34.58
2018-03-21T20:39:42.542Z,36.58
2018-03-21T20:42:09.869Z,35.45
2018-03-21T20:44:36.324Z,35.95
2018-03-21T20:47:02.880Z,40.17
2018-03-21T20:49:29.400Z,42.25
2018-03-21T20:51:56.237Z,37.40
2018-03-21T20:54:22.692Z,37.13
2018-03-21T20:56:49.528Z,34.58
2018-03-21T20:59:16.688Z,38.30
2018-03-21T21:01:43.905Z,41.65
2018-03-21T21:04:10.382Z,39.25
2018-03-21T21:06:36.815Z,33.92
2018-03-21T21:09:03.342Z,40.63
2018-03-21T21:11:30.166Z,42.62
2018-03-21T21:13:56.945Z,38.55
2018-03-21T21:16:23.343Z,31.37
2018-03-21T21:18:50.599Z,34.20
2018-03-21T21:21:17.707Z,35.17
2018-03-21T21:23:44.957Z,38.10
2018-03-21T21:26:11.800Z,34.95
2018-03-21T21:28:41.017Z,33.42
2018-03-21T21:31:07.785Z,35.50
2018-03-21T21:33:34.676Z,31.77
2018-03-21T21:36:01.613Z,33.80
2018-03-21T21:38:28.449Z,36.55
2018-03-21T21:40:54.880Z,31.80
2018-03-21T21:43:21.788Z,29.50
2018-03-21T21:45:48.624Z,33.70
2018-03-21T21:48:15.150Z,40.40
2018-03-21T21:50:41.636Z,36.70
2018-03-21T21:53:08.837Z,34.63
2018-03-21T21:55:35.342Z,34.67
2018-03-21T21:58:01.756Z,31.45
2018-03-21T22:00:28.886Z,30.08
2018-03-21T22:02:55.652Z,34.65
2018-03-21T22:05:22.036Z,28.08
2018-03-21T22:07:48.494Z,31.35
2018-03-21T22:10:15.328Z,33.85
2018-03-21T22:12:42.101Z,29.52
2018-03-21T22:15:08.925Z,31.58
2018-03-21T22:17:35.492Z,28.77
2018-03-21T22:20:01.951Z,36.10
2018-03-21T22:22:28.785Z,30.23
2018-03-21T22:24:55.186Z,29.55
2018-03-21T22:27:21.936Z,30.02
2018-03-21T22:29:49.064Z,30.40
2018-03-21T22:32:15.659Z,30.45
2018-03-21T22:34:42.084Z,29.15
2018-03-21T22:37:08.897Z,30.23
2018-03-21T22:39:37.377Z,35.17
2018-03-21T22:42:03.824Z,30.65
2018-03-21T22:44:31.016Z,29.48
2018-03-21T22:46:57.531Z,29.00
2018-03-21T22:49:23.919Z,32.40
2018-03-21T22:51:51.060Z,27.25
2018-03-21T22:54:18.654Z,29.00
2018-03-21T22:56:45.411Z,31.95
2018-03-21T22:59:11.858Z,26.10
2018-03-21T23:01:38.324Z,25.85
2018-03-21T23:04:04.869Z,30.30
2018-03-21T23:06:31.345Z,30.80
2018-03-21T23:08:58.112Z,30.58
2018-03-21T23:11:26.080Z,29.00
2018-03-21T23:13:53.588Z,27.60
2018-03-21T23:16:20.356Z,25.30
2018-03-21T23:18:47.199Z,29.52
2018-03-21T23:21:13.587Z,25.45
2018-03-21T23:23:40.530Z,26.70
2018-03-21T23:26:07.321Z,27.20
2018-03-21T23:28:34.136Z,26.85
2018-03-21T23:31:01.624Z,29.15
2018-03-21T23:33:28.753Z,24.05
2018-03-21T23:35:55.596Z,27.10
2018-03-21T23:38:22.443Z,30.55
2018-03-21T23:40:48.917Z,29.17
2018-03-21T23:43:15.834Z,30.12
2018-03-21T23:45:43.938Z,29.70
2018-03-21T23:48:11.093Z,34.80
2018-03-21T23:50:37.626Z,31.27
2018-03-21T23:53:04.519Z,27.73
2018-03-21T23:55:32.169Z,28.70
2018-03-21T23:57:58.679Z,28.10
